createdAt,value
2023-04-10T00:01:36.725Z,87.46
2023-04-10T00:04:05.471Z,87.86
2023-04-10T00:06:34.364Z,84.31
2023-04-10T00:09:02.861Z,82.83
2023-04-10T00:11:32.530Z,84.08
2023-04-10T00:14:00.923Z,84.25
2023-04-10T00:16:29.248Z,82.18
2023-04-10T00:18:57.558Z,82.18
2023-04-10T00:21:26.497Z,82.05
2023-04-10T00:23:54.917Z,81.63
2023-04-10T00:26:24.038Z,81.75
2023-04-10T00:28:53.697Z,82.24
2023-04-10T00:31:22.056Z,82.16
2023-04-10T00:33:50.481Z,81.52
2023-04-10T00:36:20.014Z,80.21
2023-04-10T00:38:49.876Z,80.17
2023-04-10T00:41:18.236Z,81.27
2023-04-10T00:43:47.086Z,77.12
2023-04-10T00:46:17.476Z,76.90
2023-04-10T00:48:46.029Z,76.98
2023-04-10T00:51:14.662Z,77.77
2023-04-10T00:53:42.960Z,80.87
2023-04-10T00:56:11.488Z,80.06
2023-04-10T00:58:39.931Z,80.41
2023-04-10T01:01:08.932Z,80.27
2023-04-10T01:03:39.790Z,82.51
2023-04-10T01:06:18.026Z,83.15
2023-04-10T01:08:54.865Z,83.66
2023-04-10T01:11:34.308Z,87.04
2023-04-10T01:14:08.849Z,88.84
2023-04-10T01:16:45.152Z,84.99
2023-04-10T01:19:27.384Z,84.90
2023-04-10T01:21:57.298Z,82.65
2023-04-10T01:24:44.668Z,83.33
2023-04-10T01:27:28.576Z,82.49
2023-04-10T01:29:59.898Z,80.62
2023-04-10T01:32:32.078Z,78.98
2023-04-10T01:35:03.762Z,78.61
2023-04-10T01:37:35.200Z,78.81
2023-04-10T01:40:06.957Z,79.98
2023-04-10T01:42:45.111Z,80.55
2023-04-10T01:45:19.807Z,81.91
2023-04-10T01:47:48.728Z,82.35
2023-04-10T01:50:18.190Z,82.74
2023-04-10T01:52:47.795Z,84.10
2023-04-10T01:55:16.935Z,85.12
2023-04-10T01:57:45.972Z,85.22
2023-04-10T02:00:16.412Z,87.25
2023-04-10T02:02:46.009Z,84.06
2023-04-10T02:05:17.186Z,83.39
2023-04-10T02:07:49.887Z,80.38
2023-04-10T02:10:23.849Z,80.25
2023-04-10T02:12:56.800Z,79.54
2023-04-10T02:15:28.765Z,81.74
2023-04-10T02:17:59.987Z,80.97
2023-04-10T02:20:28.617Z,80.95
2023-04-10T02:22:59.671Z,82.15
2023-04-10T02:25:28.044Z,84.10
2023-04-10T02:27:56.341Z,82.37
2023-04-10T02:30:25.019Z,82.67
2023-04-10T02:32:55.521Z,82.07
2023-04-10T02:35:23.828Z,81.27
2023-04-10T02:37:52.101Z,79.05
2023-04-10T02:40:20.406Z,79.17
2023-04-10T02:42:48.725Z,80.67
2023-04-10T02:45:17.174Z,78.55
2023-04-10T02:47:45.478Z,79.10
2023-04-10T02:50:15.254Z,78.08
2023-04-10T02:52:43.584Z,76.53
2023-04-10T02:55:12.414Z,77.07
2023-04-10T02:57:41.078Z,78.69
2023-04-10T03:00:10.830Z,78.70
2023-04-10T03:02:39.405Z,79.16
2023-04-10T03:05:09.239Z,78.14
2023-04-10T03:07:38.936Z,78.95
2023-04-10T03:10:08.206Z,77.37
2023-04-10T03:12:36.488Z,77.70
2023-04-10T03:15:05.267Z,76.87
2023-04-10T03:17:33.485Z,78.99
2023-04-10T03:20:01.744Z,78.34
2023-04-10T03:22:32.345Z,78.86
2023-04-10T03:25:02.672Z,79.17
2023-04-10T03:27:32.369Z,77.75
2023-04-10T03:30:00.966Z,77.49
2023-04-10T03:32:31.296Z,78.31
2023-04-10T03:34:59.922Z,78.64
2023-04-10T03:37:28.600Z,78.92
2023-04-10T03:39:57.287Z,77.94
2023-04-10T03:42:27.216Z,78.39
2023-04-10T03:44:55.558Z,79.23
2023-04-10T03:47:23.793Z,79.99
2023-04-10T03:49:52.042Z,80.53
2023-04-10T03:52:21.282Z,80.53
2023-04-10T03:54:49.642Z,80.17
2023-04-10T03:57:19.385Z,78.94
2023-04-10T03:59:49.430Z,78.21
2023-04-10T04:02:17.753Z,77.98
2023-04-10T04:04:46.225Z,78.84
2023-04-10T04:07:14.768Z,76.83
2023-04-10T04:09:43.102Z,78.10
2023-04-10T04:12:11.360Z,77.41
2023-04-10T04:14:39.807Z,77.53
2023-04-10T04:17:09.462Z,76.59
2023-04-10T04:19:37.746Z,76.34
2023-04-10T04:22:06.069Z,76.55
2023-04-10T04:24:34.364Z,76.40
2023-04-10T04:27:02.865Z,75.21
2023-04-10T04:29:31.253Z,74.48
2023-04-10T04:31:59.570Z,73.47
2023-04-10T04:34:29.369Z,73.11
2023-04-10T04:36:57.613Z,74.55
2023-04-10T04:39:26.043Z,74.43
2023-04-10T04:41:54.281Z,72.69
2023-04-10T04:44:22.553Z,71.53
2023-04-10T04:46:50.810Z,71.60
2023-04-10T04:49:19.091Z,70.55
2023-04-10T04:51:48.903Z,70.94
2023-04-10T04:54:17.197Z,69.86
2023-04-10T04:56:45.474Z,68.08
2023-04-10T04:59:14.838Z,66.72
2023-04-10T05:01:43.200Z,67.22
2023-04-10T05:04:11.792Z,65.35
2023-04-10T05:06:40.325Z,64.55
2023-04-10T05:09:10.027Z,62.72
2023-04-10T05:11:38.289Z,64.10
2023-04-10T05:14:07.616Z,63.63
2023-04-10T05:16:35.947Z,61.62
2023-04-10T05:19:04.262Z,62.36
2023-04-10T05:21:32.941Z,61.96
2023-04-10T05:24:01.170Z,60.27
2023-04-10T05:26:30.822Z,60.91
2023-04-10T05:28:59.179Z,60.76
2023-04-10T05:31:27.527Z,59.28
2023-04-10T05:33:56.120Z,59.16
2023-04-10T05:36:24.342Z,58.71
2023-04-10T05:38:53.026Z,59.69
2023-04-10T05:41:22.022Z,59.16
2023-04-10T05:43:51.753Z,61.55
2023-04-10T05:46:23.209Z,60.79
2023-04-10T05:48:51.937Z,59.49
2023-04-10T05:51:20.345Z,59.29
2023-04-10T05:53:50.205Z,60.56
2023-04-10T05:56:18.465Z,58.24
2023-04-10T05:58:46.766Z,59.68
2023-04-10T06:01:16.419Z,56.57
2023-04-10T06:03:45.208Z,56.90
2023-04-10T06:06:13.675Z,56.65
2023-04-10T06:08:42.042Z,59.55
2023-04-10T06:11:10.743Z,56.03
2023-04-10T06:13:38.987Z,56.63
2023-04-10T06:16:08.179Z,55.63
2023-04-10T06:18:38.673Z,55.61
2023-04-10T06:21:07.412Z,54.83
2023-04-10T06:23:36.002Z,54.81
2023-04-10T06:26:04.718Z,56.17
2023-04-10T06:28:33.053Z,55.43
2023-04-10T06:31:03.675Z,54.26
2023-04-10T06:33:36.329Z,51.43
2023-04-10T06:36:06.566Z,52.66
2023-04-10T06:38:37.882Z,52.14
2023-04-10T06:41:07.109Z,51.49
2023-04-10T06:43:36.028Z,51.17
2023-04-10T06:46:05.331Z,53.94
2023-04-10T06:48:33.813Z,51.09
2023-04-10T06:51:02.320Z,50.34
2023-04-10T06:53:32.000Z,51.75
2023-04-10T06:56:02.977Z,50.94
2023-04-10T06:58:32.079Z,50.49
2023-04-10T07:01:04.555Z,51.91
2023-04-10T07:03:34.009Z,50.06
2023-04-10T07:06:03.526Z,50.33
2023-04-10T07:08:33.384Z,49.11
2023-04-10T07:11:01.748Z,50.15
2023-04-10T07:13:30.014Z,47.95
2023-04-10T07:15:58.323Z,49.88
2023-04-10T07:18:27.255Z,49.68
2023-04-10T07:20:55.502Z,48.08
2023-04-10T07:23:23.767Z,47.46
2023-04-10T07:25:53.604Z,48.77
2023-04-10T07:28:21.915Z,46.03
2023-04-10T07:30:50.222Z,48.27
2023-04-10T07:33:18.708Z,47.30
2023-04-10T07:35:47.146Z,46.29
2023-04-10T07:38:15.548Z,47.92
2023-04-10T07:40:43.768Z,45.58
2023-04-10T07:43:13.471Z,46.02
2023-04-10T07:45:42.826Z,47.08
2023-04-10T07:48:11.337Z,47.02
2023-04-10T07:50:39.575Z,47.06
2023-04-10T07:53:08.288Z,47.88
2023-04-10T07:55:39.712Z,46.17
2023-04-10T07:58:08.150Z,46.33
2023-04-10T08:00:38.244Z,45.30
2023-04-10T08:03:07.374Z,45.88
2023-04-10T08:05:36.536Z,45.90
2023-04-10T08:08:04.784Z,45.54
2023-04-10T08:10:33.313Z,46.85
2023-04-10T08:13:01.749Z,46.90
2023-04-10T08:15:29.985Z,46.00
2023-04-10T08:17:59.773Z,46.27
2023-04-10T08:20:28.602Z,45.76
2023-04-10T08:23:03.124Z,44.70
2023-04-10T08:25:41.244Z,45.91
2023-04-10T08:28:09.620Z,46.18
2023-04-10T08:30:37.954Z,46.93
2023-04-10T08:33:07.789Z,45.71
2023-04-10T08:35:36.244Z,45.58
2023-04-10T08:38:13.493Z,45.71
2023-04-10T08:40:42.300Z,45.28
2023-04-10T08:43:10.594Z,46.23
2023-04-10T08:45:39.065Z,45.44
2023-04-10T08:48:09.877Z,46.38
2023-04-10T08:50:43.482Z,44.71
2023-04-10T08:53:14.505Z,44.39
2023-04-10T08:55:44.037Z,44.79
2023-04-10T08:58:13.855Z,44.24
2023-04-10T09:00:42.224Z,43.25
2023-04-10T09:03:14.523Z,42.68
2023-04-10T09:05:43.238Z,44.29
2023-04-10T09:08:12.372Z,43.20
2023-04-10T09:10:40.701Z,41.93
2023-04-10T09:13:09.121Z,41.05
2023-04-10T09:15:58.613Z,40.50
2023-04-10T09:18:45.922Z,40.96
2023-04-10T09:21:16.828Z,40.17
2023-04-10T09:23:46.384Z,41.65
2023-04-10T09:26:25.565Z,42.17
2023-04-10T09:29:02.336Z,43.14
2023-04-10T09:31:33.166Z,43.18
2023-04-10T09:34:14.304Z,43.87
2023-04-10T09:36:43.413Z,44.29
2023-04-10T09:39:13.045Z,43.13
2023-04-10T09:41:52.732Z,44.05
2023-04-10T09:44:30.623Z,44.30
2023-04-10T09:46:59.268Z,43.27
2023-04-10T09:49:29.026Z,43.49
2023-04-10T09:51:57.658Z,44.18
2023-04-10T09:54:38.239Z,44.14
2023-04-10T09:57:08.442Z,42.57
2023-04-10T09:59:41.850Z,46.80
2023-04-10T10:02:11.243Z,43.34
2023-04-10T10:04:42.743Z,42.55
2023-04-10T10:07:11.185Z,42.54
2023-04-10T10:09:39.894Z,42.80
2023-04-10T10:12:10.354Z,43.37
2023-04-10T10:14:46.281Z,43.07
2023-04-10T10:17:19.742Z,41.80
2023-04-10T10:19:58.514Z,42.83
2023-04-10T10:22:28.963Z,47.69
2023-04-10T10:24:58.569Z,44.21
2023-04-10T10:27:28.680Z,42.31
2023-04-10T10:30:02.986Z,44.15
2023-04-10T10:32:36.648Z,43.37
2023-04-10T10:35:08.183Z,43.19
2023-04-10T10:37:37.805Z,42.10
2023-04-10T10:40:13.862Z,41.54
2023-04-10T10:42:46.822Z,44.45
2023-04-10T10:45:19.110Z,42.02
2023-04-10T10:47:50.970Z,42.48
2023-04-10T10:50:23.430Z,43.89
2023-04-10T10:52:54.203Z,42.67
2023-04-10T10:55:38.005Z,43.09
2023-04-10T10:58:08.192Z,42.18
2023-04-10T11:01:10.300Z,42.28
2023-04-10T11:03:39.557Z,40.88
2023-04-10T11:06:12.937Z,40.48
2023-04-10T11:08:53.249Z,38.59
2023-04-10T11:11:23.767Z,38.88
2023-04-10T11:14:18.229Z,39.96
2023-04-10T11:16:48.460Z,40.24
2023-04-10T11:19:22.787Z,40.35
2023-04-10T11:22:10.728Z,38.77
2023-04-10T11:24:59.781Z,38.33
2023-04-10T11:27:46.529Z,38.32
2023-04-10T11:30:31.466Z,37.77
2023-04-10T11:33:00.731Z,38.56
2023-04-10T11:35:31.554Z,37.35
2023-04-10T11:38:18.330Z,35.71
2023-04-10T11:41:04.598Z,37.23
2023-04-10T11:43:33.940Z,36.55
2023-04-10T11:46:08.144Z,36.60
2023-04-10T11:48:38.213Z,37.11
2023-04-10T11:51:11.825Z,36.68
2023-04-10T11:53:43.933Z,36.65
2023-04-10T11:56:21.294Z,36.72
2023-04-10T11:58:55.138Z,37.93
2023-04-10T12:01:23.980Z,37.74
2023-04-10T12:03:52.529Z,38.52
2023-04-10T12:06:21.197Z,39.34
2023-04-10T12:08:51.347Z,39.49
2023-04-10T12:11:21.449Z,40.31
2023-04-10T12:13:50.899Z,41.16
2023-04-10T12:16:19.681Z,40.59
2023-04-10T12:18:48.346Z,40.89
2023-04-10T12:21:16.941Z,43.36
2023-04-10T12:23:45.238Z,41.67
2023-04-10T12:26:16.959Z,40.93
2023-04-10T12:28:57.709Z,41.39
2023-04-10T12:31:30.483Z,41.58
2023-04-10T12:33:59.201Z,42.32
2023-04-10T12:36:30.152Z,42.25
2023-04-10T12:38:58.893Z,41.82
2023-04-10T12:41:30.660Z,42.12
2023-04-10T12:44:09.864Z,42.94
2023-04-10T12:46:38.233Z,43.25
2023-04-10T12:49:14.118Z,42.70
2023-04-10T12:51:49.993Z,43.56
2023-04-10T12:54:32.130Z,43.39
2023-04-10T12:57:01.906Z,42.87
2023-04-10T12:59:30.919Z,42.60
2023-04-10T13:01:59.382Z,43.48
2023-04-10T13:04:28.430Z,44.29
2023-04-10T13:06:57.190Z,44.41
2023-04-10T13:09:25.485Z,43.55
2023-04-10T13:11:53.745Z,43.41
2023-04-10T13:14:24.108Z,43.45
2023-04-10T13:16:52.363Z,42.82
2023-04-10T13:19:20.826Z,43.33
2023-04-10T13:21:50.880Z,44.20
2023-04-10T13:24:19.112Z,42.24
2023-04-10T13:26:47.473Z,42.46
2023-04-10T13:29:15.743Z,43.81
2023-04-10T13:31:45.522Z,42.68
2023-04-10T13:34:13.728Z,43.85
2023-04-10T13:36:42.103Z,46.32
2023-04-10T13:39:10.412Z,44.08
2023-04-10T13:41:38.718Z,43.94
2023-04-10T13:44:07.064Z,42.94
2023-04-10T13:46:35.424Z,42.02
2023-04-10T13:49:05.350Z,41.92
2023-04-10T13:51:33.658Z,42.69
2023-04-10T13:54:03.032Z,42.09
2023-04-10T13:56:31.501Z,41.56
2023-04-10T13:58:59.880Z,41.72
2023-04-10T14:01:28.320Z,42.13
2023-04-10T14:03:56.968Z,42.60
2023-04-10T14:06:27.351Z,43.99
2023-04-10T14:08:55.917Z,44.70
2023-04-10T14:11:24.402Z,45.52
2023-04-10T14:13:52.770Z,44.58
2023-04-10T14:16:21.226Z,44.25
2023-04-10T14:18:49.778Z,44.91
2023-04-10T14:21:20.477Z,44.86
2023-04-10T14:23:50.500Z,44.57
2023-04-10T14:26:18.852Z,45.97
2023-04-10T14:28:47.165Z,45.08
2023-04-10T14:31:15.611Z,45.03
2023-04-10T14:33:43.955Z,46.29
2023-04-10T14:36:12.306Z,45.90
2023-04-10T14:38:40.684Z,45.67
2023-04-10T14:41:10.482Z,46.34
2023-04-10T14:43:39.357Z,46.16
2023-04-10T14:46:08.370Z,47.11
2023-04-10T14:48:36.761Z,48.08
2023-04-10T14:51:05.726Z,49.51
2023-04-10T14:53:34.004Z,49.06
2023-04-10T14:56:02.323Z,49.19
2023-04-10T14:58:31.968Z,49.25
2023-04-10T15:01:00.298Z,49.16
2023-04-10T15:03:28.907Z,48.93
2023-04-10T15:06:01.253Z,48.77
2023-04-10T15:08:29.655Z,50.80
2023-04-10T15:10:57.973Z,50.16
2023-04-10T15:13:26.530Z,49.06
2023-04-10T15:15:56.619Z,49.12
2023-04-10T15:18:25.696Z,48.96
2023-04-10T15:20:55.424Z,49.74
2023-04-10T15:23:23.788Z,49.85
2023-04-10T15:25:52.265Z,50.24
2023-04-10T15:28:20.659Z,49.54
2023-04-10T15:30:50.199Z,49.78
2023-04-10T15:33:21.803Z,49.73
2023-04-10T15:35:50.910Z,48.92
2023-04-10T15:38:19.168Z,48.31
2023-04-10T15:40:47.484Z,47.74
2023-04-10T15:43:15.721Z,48.90
2023-04-10T15:45:43.959Z,48.22
2023-04-10T15:48:12.336Z,47.88
2023-04-10T15:50:43.258Z,50.82
2023-04-10T15:53:11.663Z,48.84
2023-04-10T15:55:41.298Z,48.07
2023-04-10T15:58:09.664Z,48.69
2023-04-10T16:00:37.973Z,49.55
2023-04-10T16:03:07.139Z,47.34
2023-04-10T16:05:35.612Z,46.35
2023-04-10T16:08:05.353Z,49.02
2023-04-10T16:10:33.725Z,49.45
2023-04-10T16:13:04.432Z,49.29
2023-04-10T16:15:35.821Z,49.21
2023-04-10T16:18:04.805Z,50.98
2023-04-10T16:20:33.196Z,51.50
2023-04-10T16:23:02.158Z,51.90
2023-04-10T16:25:31.950Z,49.20
2023-04-10T16:28:00.355Z,50.58
2023-04-10T16:30:28.716Z,51.42
2023-04-10T16:32:57.113Z,51.77
2023-04-10T16:35:25.496Z,51.91
2023-04-10T16:37:54.965Z,52.62
2023-04-10T16:40:23.242Z,51.51
2023-04-10T16:42:52.874Z,51.37
2023-04-10T16:45:21.270Z,52.37
2023-04-10T16:47:49.615Z,53.60
2023-04-10T16:50:18.157Z,53.43
2023-04-10T16:52:46.452Z,53.04
2023-04-10T16:55:14.994Z,53.06
2023-04-10T16:57:44.265Z,53.49
2023-04-10T17:00:15.229Z,52.32
2023-04-10T17:02:44.194Z,52.75
2023-04-10T17:05:13.799Z,51.43
2023-04-10T17:07:43.671Z,51.82
2023-04-10T17:10:13.254Z,51.12
2023-04-10T17:12:42.550Z,52.41
2023-04-10T17:15:11.611Z,53.79
2023-04-10T17:17:41.234Z,50.90
2023-04-10T17:20:10.332Z,52.25
2023-04-10T17:22:39.387Z,51.31
2023-04-10T17:25:08.784Z,55.25
2023-04-10T17:27:40.321Z,52.71
2023-04-10T17:30:13.194Z,51.70
2023-04-10T17:32:43.637Z,53.08
2023-04-10T17:35:11.931Z,51.70
2023-04-10T17:37:40.164Z,54.30
2023-04-10T17:40:09.933Z,53.30
2023-04-10T17:42:38.245Z,53.84
2023-04-10T17:45:07.622Z,53.35
2023-04-10T17:47:36.390Z,53.93
2023-04-10T17:50:06.944Z,56.16
2023-04-10T17:52:35.629Z,53.97
2023-04-10T17:55:03.935Z,54.38
2023-04-10T17:57:32.276Z,54.50
2023-04-10T18:00:00.524Z,55.39
2023-04-10T18:02:28.932Z,55.06
2023-04-10T18:04:57.808Z,55.12
2023-04-10T18:07:27.472Z,55.32
2023-04-10T18:09:55.841Z,55.58
2023-04-10T18:12:24.165Z,55.37
2023-04-10T18:14:52.457Z,55.04
2023-04-10T18:17:20.784Z,55.60
2023-04-10T18:19:49.172Z,55.30
2023-04-10T18:22:17.533Z,55.52
2023-04-10T18:24:49.103Z,55.86
2023-04-10T18:27:17.448Z,55.80
2023-04-10T18:29:46.716Z,55.64
2023-04-10T18:32:15.059Z,55.50
2023-04-10T18:34:43.379Z,55.92
2023-04-10T18:37:11.649Z,55.95
2023-04-10T18:39:39.972Z,57.46
2023-04-10T18:42:10.860Z,56.51
2023-04-10T18:44:39.155Z,55.83
2023-04-10T18:47:07.622Z,56.94
2023-04-10T18:49:36.066Z,56.37
2023-04-10T18:52:04.493Z,57.17
2023-04-10T18:54:32.962Z,56.10
2023-04-10T18:57:01.333Z,56.45
2023-04-10T18:59:32.151Z,56.84
2023-04-10T19:02:00.614Z,56.20
2023-04-10T19:04:29.133Z,57.28
2023-04-10T19:06:57.425Z,56.36
2023-04-10T19:09:25.761Z,56.07
2023-04-10T19:11:54.161Z,55.56
2023-04-10T19:14:22.463Z,57.33
2023-04-10T19:16:52.134Z,59.35
2023-04-10T19:19:20.709Z,62.78
2023-04-10T19:21:49.050Z,55.83
2023-04-10T19:24:17.308Z,56.48
2023-04-10T19:26:45.671Z,55.46
2023-04-10T19:29:14.016Z,56.18
2023-04-10T19:31:42.233Z,57.86
2023-04-10T19:34:12.698Z,58.80
2023-04-10T19:36:41.943Z,56.45
2023-04-10T19:39:10.496Z,56.11
2023-04-10T19:41:43.898Z,59.05
2023-04-10T19:44:12.286Z,59.09
2023-04-10T19:46:40.656Z,56.99
2023-04-10T19:49:09.016Z,56.92
2023-04-10T19:51:38.680Z,59.19
2023-04-10T19:54:07.543Z,55.07
2023-04-10T19:56:37.904Z,55.38
2023-04-10T19:59:06.168Z,56.33
2023-04-10T20:01:35.923Z,55.65
2023-04-10T20:04:04.621Z,54.80
2023-04-10T20:06:33.203Z,55.97
2023-04-10T20:09:02.904Z,55.53
2023-04-10T20:11:31.642Z,56.66
2023-04-10T20:13:59.999Z,55.00
2023-04-10T20:16:28.359Z,61.55
2023-04-10T20:18:56.900Z,54.58
2023-04-10T20:21:25.542Z,55.78
2023-04-10T20:23:53.821Z,55.16
2023-04-10T20:26:25.720Z,55.07
2023-04-10T20:28:54.447Z,55.39
2023-04-10T20:31:23.120Z,55.82
2023-04-10T20:33:51.462Z,56.01
2023-04-10T20:36:19.870Z,55.03
2023-04-10T20:38:48.155Z,54.24
2023-04-10T20:41:16.482Z,54.64
2023-04-10T20:43:46.277Z,54.41
2023-04-10T20:46:14.483Z,55.66
2023-04-10T20:48:42.741Z,55.40
2023-04-10T20:51:11.176Z,61.65
2023-04-10T20:53:39.375Z,56.84
2023-04-10T20:56:08.104Z,56.08
2023-04-10T20:58:36.440Z,54.64
2023-04-10T21:01:06.394Z,57.02
2023-04-10T21:03:34.784Z,56.20
2023-04-10T21:06:04.511Z,58.05
2023-04-10T21:08:32.776Z,56.46
2023-04-10T21:11:01.120Z,59.78
2023-04-10T21:13:29.381Z,55.29
2023-04-10T21:15:57.617Z,54.97
2023-04-10T21:18:27.327Z,56.22
2023-04-10T21:20:55.642Z,56.15
2023-04-10T21:23:23.847Z,63.67
2023-04-10T21:25:53.545Z,55.70
2023-04-10T21:28:22.003Z,56.82
2023-04-10T21:30:50.250Z,58.62
2023-04-10T21:33:18.592Z,58.22
2023-04-10T21:35:48.957Z,59.57
2023-04-10T21:38:17.257Z,59.34
2023-04-10T21:40:52.167Z,65.18
2023-04-10T21:43:20.625Z,62.72
2023-04-10T21:45:49.065Z,61.22
2023-04-10T21:48:17.449Z,59.77
2023-04-10T21:50:45.714Z,65.04
2023-04-10T21:53:15.549Z,63.05
2023-04-10T21:55:43.904Z,66.25
2023-04-10T21:58:12.252Z,59.58
2023-04-10T22:00:41.648Z,60.08
2023-04-10T22:03:10.978Z,61.47
2023-04-10T22:05:39.349Z,60.74
2023-04-10T22:08:07.708Z,63.15
2023-04-10T22:10:38.133Z,60.85
2023-04-10T22:13:06.742Z,60.44
2023-04-10T22:15:35.926Z,60.81
2023-04-10T22:18:04.257Z,61.51
2023-04-10T22:20:32.561Z,62.01
2023-04-10T22:23:00.845Z,65.15
2023-04-10T22:25:29.116Z,62.73
2023-04-10T22:27:59.153Z,62.36
2023-04-10T22:30:27.890Z,64.25
2023-04-10T22:32:57.493Z,67.09
2023-04-10T22:35:25.961Z,65.20
2023-04-10T22:37:54.248Z,68.16
2023-04-10T22:40:22.438Z,62.62
2023-04-10T22:42:50.689Z,62.07
2023-04-10T22:45:20.460Z,62.29
2023-04-10T22:47:48.840Z,66.00
2023-04-10T22:50:17.197Z,64.40
2023-04-10T22:52:45.522Z,63.14
2023-04-10T22:55:14.487Z,64.48
2023-04-10T22:57:42.860Z,73.26
2023-04-10T23:00:11.928Z,64.61
2023-04-10T23:02:41.655Z,65.46
2023-04-10T23:05:10.795Z,64.78
2023-04-10T23:07:39.066Z,64.97
2023-04-10T23:10:08.754Z,66.21
2023-04-10T23:12:37.866Z,66.37
2023-04-10T23:15:07.312Z,65.24
2023-04-10T23:17:35.581Z,65.11
2023-04-10T23:20:05.707Z,65.05
2023-04-10T23:22:33.967Z,64.52
2023-04-10T23:25:02.294Z,64.91
2023-04-10T23:27:30.560Z,72.11
2023-04-10T23:29:58.861Z,65.37
2023-04-10T23:32:27.246Z,65.58
2023-04-10T23:34:55.507Z,69.08
2023-04-10T23:37:25.144Z,65.79
2023-04-10T23:39:53.450Z,65.80
2023-04-10T23:42:21.663Z,64.77
2023-04-10T23:44:49.874Z,70.52
2023-04-10T23:47:18.134Z,65.32
2023-04-10T23:49:46.425Z,64.17
2023-04-10T23:52:14.722Z,65.86
2023-04-10T23:54:44.608Z,68.49
2023-04-10T23:57:12.877Z,63.93
2023-04-10T23:59:41.144Z,64.02
